sensor_id;sensor_type;location;lat;lon;timestamp;pressure;altitude;pressure_sealevel;temperature;humidity
80424;BME280;69765;47.668;19.326;2023-07-28T00:00:08;98779.38;;;18.04;58.83
80424;BME280;69765;47.668;19.326;2023-07-28T00:03:11;98779.38;;;18.04;60.33
80424;BME280;69765;47.668;19.326;2023-07-28T00:06:13;98782.81;;;18.03;59.85
80424;BME280;69765;47.668;19.326;2023-07-28T00:09:16;98781.13;;;18.05;58.78
80424;BME280;69765;47.668;19.326;2023-07-28T00:12:18;98777.66;;;18.05;59.23
80424;BME280;69765;47.668;19.326;2023-07-28T00:15:21;98776.75;;;18.03;58.81
80424;BME280;69765;47.668;19.326;2023-07-28T00:18:23;98785.34;;;18.02;59.34
80424;BME280;69765;47.668;19.326;2023-07-28T00:21:26;98783.53;;;17.99;59.09
80424;BME280;69765;47.668;19.326;2023-07-28T00:24:28;98782.75;;;18.02;59.93
80424;BME280;69765;47.668;19.326;2023-07-28T00:27:31;98780.91;;;17.98;59.77
80424;BME280;69765;47.668;19.326;2023-07-28T00:30:33;98779.13;;;17.97;60.02
80424;BME280;69765;47.668;19.326;2023-07-28T00:33:37;98767.59;;;17.87;60.06
80424;BME280;69765;47.668;19.326;2023-07-28T00:36:39;98764.72;;;17.78;60.40
80424;BME280;69765;47.668;19.326;2023-07-28T00:39:43;98769.09;;;17.79;60.21
80424;BME280;69765;47.668;19.326;2023-07-28T00:42:45;98760.38;;;17.77;60.53
80424;BME280;69765;47.668;19.326;2023-07-28T00:45:48;98767.25;;;17.75;60.06
80424;BME280;69765;47.668;19.326;2023-07-28T00:48:51;98756.03;;;17.76;60.73
80424;BME280;69765;47.668;19.326;2023-07-28T00:51:54;98761.94;;;17.72;60.54
80424;BME280;69765;47.668;19.326;2023-07-28T00:54:56;98761.06;;;17.71;60.54
80424;BME280;69765;47.668;19.326;2023-07-28T00:57:59;98750.41;;;17.62;60.65
80424;BME280;69765;47.668;19.326;2023-07-28T01:01:01;98747.69;;;17.59;60.63
80424;BME280;69765;47.668;19.326;2023-07-28T01:04:03;98748.72;;;17.64;60.48
80424;BME280;69765;47.668;19.326;2023-07-28T01:07:14;98753.41;;;17.74;59.97
80424;BME280;69765;47.668;19.326;2023-07-28T01:10:30;98757.03;;;17.79;59.62
80424;BME280;69765;47.668;19.326;2023-07-28T01:13:34;98752.88;;;17.84;59.63
80424;BME280;69765;47.668;19.326;2023-07-28T01:16:36;98749.31;;;17.82;60.17
80424;BME280;69765;47.668;19.326;2023-07-28T01:19:39;98739.81;;;17.81;60.21
80424;BME280;69765;47.668;19.326;2023-07-28T01:26:05;98758.59;;;17.74;60.46
80424;BME280;69765;47.668;19.326;2023-07-28T01:29:09;98756.72;;;17.70;60.72
80424;BME280;69765;47.668;19.326;2023-07-28T01:32:12;98744.44;;;17.65;60.96
80424;BME280;69765;47.668;19.326;2023-07-28T01:35:15;98740.97;;;17.64;61.00
80424;BME280;69765;47.668;19.326;2023-07-28T01:38:17;98719.94;;;17.55;61.15
80424;BME280;69765;47.668;19.326;2023-07-28T01:41:19;98740.22;;;17.68;61.05
80424;BME280;69765;47.668;19.326;2023-07-28T01:44:21;98730.66;;;17.66;61.17
80424;BME280;69765;47.668;19.326;2023-07-28T01:47:24;98731.53;;;17.66;61.67
80424;BME280;69765;47.668;19.326;2023-07-28T01:50:27;98721.03;;;17.61;61.56
80424;BME280;69765;47.668;19.326;2023-07-28T01:53:29;98727.06;;;17.60;61.68
80424;BME280;69765;47.668;19.326;2023-07-28T01:56:32;98726.09;;;17.58;61.40
80424;BME280;69765;47.668;19.326;2023-07-28T01:59:35;98716.59;;;17.57;61.42
80424;BME280;69765;47.668;19.326;2023-07-28T02:02:37;98728.56;;;17.54;61.63
80424;BME280;69765;47.668;19.326;2023-07-28T02:05:39;98721.72;;;17.56;61.78
80424;BME280;69765;47.668;19.326;2023-07-28T02:08:42;98730.69;;;17.67;61.44
80424;BME280;69765;47.668;19.326;2023-07-28T02:11:44;98721.75;;;17.57;61.72
80424;BME280;69765;47.668;19.326;2023-07-28T02:14:46;98719.88;;;17.52;62.22
80424;BME280;69765;47.668;19.326;2023-07-28T02:17:49;98727.59;;;17.50;61.78
80424;BME280;69765;47.668;19.326;2023-07-28T02:20:51;98723.34;;;17.52;62.08
80424;BME280;69765;47.668;19.326;2023-07-28T02:23:53;98737.28;;;17.56;61.82
80424;BME280;69765;47.668;19.326;2023-07-28T02:26:56;98733.94;;;17.60;61.97
80424;BME280;69765;47.668;19.326;2023-07-28T02:30:01;98733.19;;;17.64;61.56
80424;BME280;69765;47.668;19.326;2023-07-28T02:33:03;98729.56;;;17.59;61.58
80424;BME280;69765;47.668;19.326;2023-07-28T02:36:05;98736.31;;;17.54;62.01
80424;BME280;69765;47.668;19.326;2023-07-28T02:39:08;98732.22;;;17.60;62.06
80424;BME280;69765;47.668;19.326;2023-07-28T02:42:11;98724.19;;;17.51;61.83
80424;BME280;69765;47.668;19.326;2023-07-28T02:45:13;98718.06;;;17.49;61.77
80424;BME280;69765;47.668;19.326;2023-07-28T02:48:16;98718.13;;;17.51;61.78
80424;BME280;69765;47.668;19.326;2023-07-28T02:51:18;98716.25;;;17.47;61.86
80424;BME280;69765;47.668;19.326;2023-07-28T02:54:20;98708.56;;;17.50;61.66
80424;BME280;69765;47.668;19.326;2023-07-28T02:57:26;98696.41;;;17.47;61.58
80424;BME280;69765;47.668;19.326;2023-07-28T03:00:28;98698.06;;;17.45;61.32
80424;BME280;69765;47.668;19.326;2023-07-28T03:03:31;98692.97;;;17.47;61.31
80424;BME280;69765;47.668;19.326;2023-07-28T03:06:34;98702.47;;;17.48;60.64
80424;BME280;69765;47.668;19.326;2023-07-28T03:09:36;98708.38;;;17.44;61.34
80424;BME280;69765;47.668;19.326;2023-07-28T03:12:39;98710.22;;;17.46;61.19
80424;BME280;69765;47.668;19.326;2023-07-28T03:15:41;98712.00;;;17.49;61.06
80424;BME280;69765;47.668;19.326;2023-07-28T03:18:43;98714.53;;;17.47;61.46
80424;BME280;69765;47.668;19.326;2023-07-28T03:21:46;98719.69;;;17.46;61.65
80424;BME280;69765;47.668;19.326;2023-07-28T03:24:48;98711.78;;;17.41;62.12
80424;BME280;69765;47.668;19.326;2023-07-28T03:27:50;98715.47;;;17.49;61.54
80424;BME280;69765;47.668;19.326;2023-07-28T03:30:55;98704.00;;;17.41;61.90
80424;BME280;69765;47.668;19.326;2023-07-28T03:33:57;98718.84;;;17.47;61.71
80424;BME280;69765;47.668;19.326;2023-07-28T03:37:01;98719.63;;;17.44;61.60
80424;BME280;69765;47.668;19.326;2023-07-28T03:40:05;98716.03;;;17.41;61.59
80424;BME280;69765;47.668;19.326;2023-07-28T03:43:18;98712.69;;;17.43;61.80
80424;BME280;69765;47.668;19.326;2023-07-28T03:46:20;98705.97;;;17.50;61.52
80424;BME280;69765;47.668;19.326;2023-07-28T03:49:23;98706.75;;;17.46;61.58
80424;BME280;69765;47.668;19.326;2023-07-28T03:52:25;98702.59;;;17.51;61.04
80424;BME280;69765;47.668;19.326;2023-07-28T03:55:27;98695.63;;;17.50;61.35
80424;BME280;69765;47.668;19.326;2023-07-28T03:58:30;98706.94;;;17.52;59.95
80424;BME280;69765;47.668;19.326;2023-07-28T04:01:33;98693.78;;;17.46;60.60
80424;BME280;69765;47.668;19.326;2023-07-28T04:04:35;98713.13;;;17.57;60.87
80424;BME280;69765;47.668;19.326;2023-07-28T04:07:38;98728.25;;;17.72;60.24
80424;BME280;69765;47.668;19.326;2023-07-28T04:10:41;98725.09;;;17.80;60.10
80424;BME280;69765;47.668;19.326;2023-07-28T04:13:43;98727.13;;;17.91;60.49
80424;BME280;69765;47.668;19.326;2023-07-28T04:16:45;98721.53;;;17.77;60.20
80424;BME280;69765;47.668;19.326;2023-07-28T04:19:48;98722.38;;;17.76;60.77
80424;BME280;69765;47.668;19.326;2023-07-28T04:22:50;98719.75;;;17.74;61.01
80424;BME280;69765;47.668;19.326;2023-07-28T04:25:53;98710.81;;;17.66;61.27
80424;BME280;69765;47.668;19.326;2023-07-28T04:28:56;98722.50;;;17.80;60.89
80424;BME280;69765;47.668;19.326;2023-07-28T04:31:58;98719.03;;;17.80;60.62
80424;BME280;69765;47.668;19.326;2023-07-28T04:35:05;98721.78;;;17.84;60.42
80424;BME280;69765;47.668;19.326;2023-07-28T04:38:34;98718.06;;;17.76;60.61
80424;BME280;69765;47.668;19.326;2023-07-28T04:41:37;98719.44;;;17.65;61.12
80424;BME280;69765;47.668;19.326;2023-07-28T04:44:39;98728.16;;;17.69;61.07
80424;BME280;69765;47.668;19.326;2023-07-28T04:47:42;98713.38;;;17.65;61.54
80424;BME280;69765;47.668;19.326;2023-07-28T04:50:45;98722.81;;;17.64;61.82
80424;BME280;69765;47.668;19.326;2023-07-28T04:53:56;98725.47;;;17.66;61.91
80424;BME280;69765;47.668;19.326;2023-07-28T04:57:03;98713.59;;;17.72;61.49
80424;BME280;69765;47.668;19.326;2023-07-28T05:00:09;98711.09;;;17.74;61.56
80424;BME280;69765;47.668;19.326;2023-07-28T05:03:13;98705.91;;;17.74;61.38
80424;BME280;69765;47.668;19.326;2023-07-28T05:06:22;98689.47;;;17.73;61.49
80424;BME280;69765;47.668;19.326;2023-07-28T05:09:24;98694.91;;;17.82;61.46
80424;BME280;69765;47.668;19.326;2023-07-28T05:12:27;98703.09;;;17.96;60.88
80424;BME280;69765;47.668;19.326;2023-07-28T05:15:29;98701.78;;;18.10;60.55
80424;BME280;69765;47.668;19.326;2023-07-28T05:18:32;98710.41;;;18.09;59.74
80424;BME280;69765;47.668;19.326;2023-07-28T05:21:53;98710.38;;;18.08;60.30
80424;BME280;69765;47.668;19.326;2023-07-28T05:25:01;98699.28;;;18.13;59.31
80424;BME280;69765;47.668;19.326;2023-07-28T05:28:05;98695.31;;;18.26;59.44
80424;BME280;69765;47.668;19.326;2023-07-28T05:31:10;98693.13;;;18.40;59.01
80424;BME280;69765;47.668;19.326;2023-07-28T05:34:12;98699.72;;;18.62;58.83
80424;BME280;69765;47.668;19.326;2023-07-28T05:37:15;98695.78;;;18.75;57.60
80424;BME280;69765;47.668;19.326;2023-07-28T05:40:17;98698.22;;;18.69;58.35
80424;BME280;69765;47.668;19.326;2023-07-28T05:43:20;98693.78;;;18.66;57.49
80424;BME280;69765;47.668;19.326;2023-07-28T05:46:23;98698.25;;;18.70;56.77
80424;BME280;69765;47.668;19.326;2023-07-28T05:49:25;98703.53;;;18.73;57.21
80424;BME280;69765;47.668;19.326;2023-07-28T05:52:28;98700.19;;;18.77;57.30
80424;BME280;69765;47.668;19.326;2023-07-28T05:55:30;98717.63;;;18.83;56.85
80424;BME280;69765;47.668;19.326;2023-07-28T05:58:32;98717.16;;;18.99;56.97
80424;BME280;69765;47.668;19.326;2023-07-28T06:01:35;98720.94;;;19.10;56.57
80424;BME280;69765;47.668;19.326;2023-07-28T06:05:08;98716.56;;;19.09;56.55
80424;BME280;69765;47.668;19.326;2023-07-28T06:08:10;98727.47;;;19.29;56.28
80424;BME280;69765;47.668;19.326;2023-07-28T06:11:13;98728.47;;;19.36;56.46
80424;BME280;69765;47.668;19.326;2023-07-28T06:14:15;98739.97;;;19.47;56.41
80424;BME280;69765;47.668;19.326;2023-07-28T06:17:18;98743.09;;;19.67;55.49
80424;BME280;69765;47.668;19.326;2023-07-28T06:20:20;98744.78;;;19.65;55.44
80424;BME280;69765;47.668;19.326;2023-07-28T06:23:22;98746.38;;;19.99;54.79
80424;BME280;69765;47.668;19.326;2023-07-28T06:26:28;98742.66;;;20.27;53.83
80424;BME280;69765;47.668;19.326;2023-07-28T06:29:30;98748.06;;;20.80;52.71
80424;BME280;69765;47.668;19.326;2023-07-28T06:32:33;98747.91;;;21.21;50.73
80424;BME280;69765;47.668;19.326;2023-07-28T06:35:36;98746.56;;;21.41;49.72
80424;BME280;69765;47.668;19.326;2023-07-28T06:38:38;98739.72;;;22.10;48.09
80424;BME280;69765;47.668;19.326;2023-07-28T06:41:41;98737.81;;;22.67;47.16
80424;BME280;69765;47.668;19.326;2023-07-28T06:44:46;98739.28;;;22.40;47.59
80424;BME280;69765;47.668;19.326;2023-07-28T06:47:48;98734.31;;;21.95;48.62
80424;BME280;69765;47.668;19.326;2023-07-28T06:50:50;98725.88;;;21.52;49.75
80424;BME280;69765;47.668;19.326;2023-07-28T06:53:53;98745.28;;;21.18;51.18
80424;BME280;69765;47.668;19.326;2023-07-28T06:56:55;98740.88;;;21.15;50.59
80424;BME280;69765;47.668;19.326;2023-07-28T06:59:58;98745.91;;;21.06;51.33
80424;BME280;69765;47.668;19.326;2023-07-28T07:03:02;98745.22;;;21.16;51.56
80424;BME280;69765;47.668;19.326;2023-07-28T07:06:04;98739.31;;;21.80;50.62
80424;BME280;69765;47.668;19.326;2023-07-28T07:09:07;98725.22;;;21.67;49.94
80424;BME280;69765;47.668;19.326;2023-07-28T07:12:10;98701.53;;;21.53;50.60
80424;BME280;69765;47.668;19.326;2023-07-28T07:15:12;98704.75;;;21.35;51.44
80424;BME280;69765;47.668;19.326;2023-07-28T07:18:15;98699.22;;;21.73;50.40
80424;BME280;69765;47.668;19.326;2023-07-28T07:21:17;98703.53;;;21.71;50.51
80424;BME280;69765;47.668;19.326;2023-07-28T07:24:19;98709.88;;;21.90;50.28
80424;BME280;69765;47.668;19.326;2023-07-28T07:27:24;98703.63;;;21.77;50.44
80424;BME280;69765;47.668;19.326;2023-07-28T07:30:26;98688.75;;;21.70;50.74
80424;BME280;69765;47.668;19.326;2023-07-28T07:33:28;98700.13;;;21.75;51.05
80424;BME280;69765;47.668;19.326;2023-07-28T07:36:31;98702.59;;;21.66;52.18
80424;BME280;69765;47.668;19.326;2023-07-28T07:39:33;98712.31;;;21.76;51.19
80424;BME280;69765;47.668;19.326;2023-07-28T07:42:47;98714.72;;;21.64;50.80
80424;BME280;69765;47.668;19.326;2023-07-28T07:45:50;98712.19;;;21.68;50.83
80424;BME280;69765;47.668;19.326;2023-07-28T07:48:56;98705.88;;;22.12;50.06
80424;BME280;69765;47.668;19.326;2023-07-28T07:51:58;98717.97;;;22.83;47.89
80424;BME280;69765;47.668;19.326;2023-07-28T07:55:00;98713.78;;;22.97;48.06
80424;BME280;69765;47.668;19.326;2023-07-28T07:58:03;98723.41;;;23.03;46.99
80424;BME280;69765;47.668;19.326;2023-07-28T08:01:05;98712.78;;;22.87;47.50
80424;BME280;69765;47.668;19.326;2023-07-28T08:04:08;98715.53;;;22.97;48.06
80424;BME280;69765;47.668;19.326;2023-07-28T08:07:11;98710.09;;;23.86;45.89
80424;BME280;69765;47.668;19.326;2023-07-28T08:10:13;98700.00;;;25.06;43.35
80424;BME280;69765;47.668;19.326;2023-07-28T08:13:16;98697.97;;;24.02;44.93
80424;BME280;69765;47.668;19.326;2023-07-28T08:16:18;98693.44;;;23.69;45.16
80424;BME280;69765;47.668;19.326;2023-07-28T08:19:21;98698.56;;;23.61;44.84
80424;BME280;69765;47.668;19.326;2023-07-28T08:22:23;98687.19;;;23.50;44.70
80424;BME280;69765;47.668;19.326;2023-07-28T08:25:25;98699.97;;;23.10;45.20
80424;BME280;69765;47.668;19.326;2023-07-28T08:28:27;98702.06;;;23.60;44.83
80424;BME280;69765;47.668;19.326;2023-07-28T08:31:30;98709.19;;;23.80;44.94
80424;BME280;69765;47.668;19.326;2023-07-28T08:34:33;98694.66;;;24.51;44.28
80424;BME280;69765;47.668;19.326;2023-07-28T08:37:35;98691.25;;;24.93;42.14
80424;BME280;69765;47.668;19.326;2023-07-28T08:40:38;98683.44;;;25.22;41.94
80424;BME280;69765;47.668;19.326;2023-07-28T08:43:40;98681.63;;;25.50;41.12
80424;BME280;69765;47.668;19.326;2023-07-28T08:46:43;98685.44;;;26.96;38.30
80424;BME280;69765;47.668;19.326;2023-07-28T08:49:46;98663.69;;;27.76;36.04
80424;BME280;69765;47.668;19.326;2023-07-28T08:52:51;98673.81;;;28.08;35.15
80424;BME280;69765;47.668;19.326;2023-07-28T08:55:54;98683.06;;;27.64;36.31
80424;BME280;69765;47.668;19.326;2023-07-28T08:58:59;98682.81;;;26.93;36.46
80424;BME280;69765;47.668;19.326;2023-07-28T09:02:02;98682.44;;;26.03;38.24
80424;BME280;69765;47.668;19.326;2023-07-28T09:05:16;98678.59;;;26.66;37.08
80424;BME280;69765;47.668;19.326;2023-07-28T09:08:20;98675.22;;;28.37;34.30
80424;BME280;69765;47.668;19.326;2023-07-28T09:11:24;98672.03;;;29.32;32.70
80424;BME280;69765;47.668;19.326;2023-07-28T09:14:29;98671.78;;;29.94;31.10
80424;BME280;69765;47.668;19.326;2023-07-28T09:17:41;98667.34;;;28.35;33.06
80424;BME280;69765;47.668;19.326;2023-07-28T09:20:44;98659.03;;;27.09;36.20
80424;BME280;69765;47.668;19.326;2023-07-28T09:23:47;98660.56;;;28.16;34.14
80424;BME280;69765;47.668;19.326;2023-07-28T09:26:50;98661.88;;;29.08;32.50
80424;BME280;69765;47.668;19.326;2023-07-28T09:29:53;98661.56;;;29.27;32.76
80424;BME280;69765;47.668;19.326;2023-07-28T09:32:59;98655.13;;;28.88;33.06
80424;BME280;69765;47.668;19.326;2023-07-28T09:36:13;98657.91;;;28.17;34.11
80424;BME280;69765;47.668;19.326;2023-07-28T09:39:18;98659.44;;;28.97;32.68
80424;BME280;69765;47.668;19.326;2023-07-28T09:42:21;98655.44;;;30.18;31.26
80424;BME280;69765;47.668;19.326;2023-07-28T09:45:24;98656.22;;;30.64;30.38
80424;BME280;69765;47.668;19.326;2023-07-28T09:48:31;98638.84;;;32.51;28.90
80424;BME280;69765;47.668;19.326;2023-07-28T09:51:35;98646.13;;;32.44;26.33
80424;BME280;69765;47.668;19.326;2023-07-28T09:54:40;98637.84;;;31.96;27.27
80424;BME280;69765;47.668;19.326;2023-07-28T09:57:50;98623.34;;;31.45;27.88
80424;BME280;69765;47.668;19.326;2023-07-28T10:00:53;98622.78;;;32.26;27.56
80424;BME280;69765;47.668;19.326;2023-07-28T10:03:55;98625.13;;;33.46;25.69
80424;BME280;69765;47.668;19.326;2023-07-28T10:06:58;98621.47;;;32.69;26.23
80424;BME280;69765;47.668;19.326;2023-07-28T10:10:07;98626.69;;;32.14;27.17
80424;BME280;69765;47.668;19.326;2023-07-28T10:13:22;98612.41;;;32.18;27.24
80424;BME280;69765;47.668;19.326;2023-07-28T10:16:37;98613.34;;;32.47;27.01
80424;BME280;69765;47.668;19.326;2023-07-28T10:19:41;98605.97;;;34.10;25.61
80424;BME280;69765;47.668;19.326;2023-07-28T10:22:44;98623.81;;;32.51;26.59
80424;BME280;69765;47.668;19.326;2023-07-28T10:25:56;98600.53;;;32.60;27.38
80424;BME280;69765;47.668;19.326;2023-07-28T10:29:12;98607.84;;;32.53;27.81
80424;BME280;69765;47.668;19.326;2023-07-28T10:32:25;98617.59;;;32.79;27.52
80424;BME280;69765;47.668;19.326;2023-07-28T10:35:30;98611.72;;;32.97;26.76
80424;BME280;69765;47.668;19.326;2023-07-28T10:38:34;98605.94;;;34.33;25.06
80424;BME280;69765;47.668;19.326;2023-07-28T10:41:38;98592.97;;;32.75;27.07
80424;BME280;69765;47.668;19.326;2023-07-28T10:44:40;98612.22;;;32.54;27.26
80424;BME280;69765;47.668;19.326;2023-07-28T10:47:43;98609.63;;;32.79;28.07
80424;BME280;69765;47.668;19.326;2023-07-28T10:50:46;98604.09;;;33.88;26.32
80424;BME280;69765;47.668;19.326;2023-07-28T10:53:54;98603.91;;;34.40;25.39
80424;BME280;69765;47.668;19.326;2023-07-28T10:57:01;98605.91;;;33.13;26.60
80424;BME280;69765;47.668;19.326;2023-07-28T11:00:04;98595.19;;;32.88;27.62
80424;BME280;69765;47.668;19.326;2023-07-28T11:03:08;98599.44;;;33.46;27.22
80424;BME280;69765;47.668;19.326;2023-07-28T11:06:10;98598.56;;;33.46;26.46
80424;BME280;69765;47.668;19.326;2023-07-28T11:09:15;98610.28;;;33.14;27.49
80424;BME280;69765;47.668;19.326;2023-07-28T11:12:18;98607.13;;;31.89;29.20
80424;BME280;69765;47.668;19.326;2023-07-28T11:15:20;98602.41;;;31.98;29.20
80424;BME280;69765;47.668;19.326;2023-07-28T11:18:25;98608.13;;;31.85;29.30
80424;BME280;69765;47.668;19.326;2023-07-28T11:21:28;98600.06;;;33.28;28.06
80424;BME280;69765;47.668;19.326;2023-07-28T11:24:30;98589.47;;;33.26;27.85
80424;BME280;69765;47.668;19.326;2023-07-28T11:27:33;98593.72;;;33.32;27.12
80424;BME280;69765;47.668;19.326;2023-07-28T11:30:40;98591.59;;;33.42;28.23
80424;BME280;69765;47.668;19.326;2023-07-28T11:34:40;98588.81;;;31.79;30.10
80424;BME280;69765;47.668;19.326;2023-07-28T11:38:17;98594.63;;;31.61;31.29
80424;BME280;69765;47.668;19.326;2023-07-28T11:41:57;98590.44;;;30.87;32.08
80424;BME280;69765;47.668;19.326;2023-07-28T11:45:22;98589.00;;;30.72;32.79
80424;BME280;69765;47.668;19.326;2023-07-28T11:48:32;98586.47;;;30.31;33.37
80424;BME280;69765;47.668;19.326;2023-07-28T11:51:53;98583.50;;;30.44;34.57
80424;BME280;69765;47.668;19.326;2023-07-28T11:54:56;98574.78;;;30.78;32.94
80424;BME280;69765;47.668;19.326;2023-07-28T11:57:58;98567.34;;;31.59;31.86
80424;BME280;69765;47.668;19.326;2023-07-28T12:01:07;98550.69;;;32.15;31.20
80424;BME280;69765;47.668;19.326;2023-07-28T12:07:31;98564.78;;;32.99;29.03
80424;BME280;69765;47.668;19.326;2023-07-28T12:10:36;98565.19;;;33.12;28.84
80424;BME280;69765;47.668;19.326;2023-07-28T12:13:50;98571.38;;;32.86;28.48
80424;BME280;69765;47.668;19.326;2023-07-28T12:16:55;98562.50;;;32.04;29.22
80424;BME280;69765;47.668;19.326;2023-07-28T12:20:08;98563.03;;;31.22;30.36
80424;BME280;69765;47.668;19.326;2023-07-28T12:23:19;98572.00;;;31.80;30.47
80424;BME280;69765;47.668;19.326;2023-07-28T12:26:24;98560.66;;;32.06;28.85
80424;BME280;69765;47.668;19.326;2023-07-28T12:29:27;98562.34;;;32.09;29.87
80424;BME280;69765;47.668;19.326;2023-07-28T12:32:32;98572.19;;;31.74;29.46
80424;BME280;69765;47.668;19.326;2023-07-28T12:35:39;98572.81;;;32.42;29.10
80424;BME280;69765;47.668;19.326;2023-07-28T12:38:45;98563.06;;;32.70;28.87
80424;BME280;69765;47.668;19.326;2023-07-28T12:41:47;98560.88;;;33.10;29.58
80424;BME280;69765;47.668;19.326;2023-07-28T12:45:09;98556.81;;;32.45;28.70
80424;BME280;69765;47.668;19.326;2023-07-28T12:48:16;98555.00;;;32.73;28.61
80424;BME280;69765;47.668;19.326;2023-07-28T12:51:21;98555.72;;;32.22;29.14
80424;BME280;69765;47.668;19.326;2023-07-28T12:54:26;98552.44;;;32.44;30.17
80424;BME280;69765;47.668;19.326;2023-07-28T12:57:29;98539.59;;;32.30;29.75
80424;BME280;69765;47.668;19.326;2023-07-28T13:00:31;98547.41;;;32.35;30.79
80424;BME280;69765;47.668;19.326;2023-07-28T13:03:37;98545.91;;;32.54;30.46
80424;BME280;69765;47.668;19.326;2023-07-28T13:06:40;98544.13;;;32.26;30.94
80424;BME280;69765;47.668;19.326;2023-07-28T13:09:43;98540.75;;;31.93;30.71
80424;BME280;69765;47.668;19.326;2023-07-28T13:12:45;98551.88;;;31.44;31.25
80424;BME280;69765;47.668;19.326;2023-07-28T13:15:50;98551.53;;;31.56;31.75
80424;BME280;69765;47.668;19.326;2023-07-28T13:18:53;98540.84;;;31.59;31.31
80424;BME280;69765;47.668;19.326;2023-07-28T13:21:55;98539.44;;;31.77;31.75
80424;BME280;69765;47.668;19.326;2023-07-28T13:24:57;98535.63;;;31.87;31.34
80424;BME280;69765;47.668;19.326;2023-07-28T13:28:00;98551.50;;;31.25;30.49
80424;BME280;69765;47.668;19.326;2023-07-28T13:31:02;98546.47;;;30.82;31.66
80424;BME280;69765;47.668;19.326;2023-07-28T13:34:05;98543.81;;;30.82;30.72
80424;BME280;69765;47.668;19.326;2023-07-28T13:37:08;98549.91;;;30.85;30.36
80424;BME280;69765;47.668;19.326;2023-07-28T13:40:11;98545.97;;;30.66;30.98
80424;BME280;69765;47.668;19.326;2023-07-28T13:43:14;98540.09;;;30.53;31.77
80424;BME280;69765;47.668;19.326;2023-07-28T13:46:18;98538.31;;;30.53;31.56
80424;BME280;69765;47.668;19.326;2023-07-28T13:49:21;98531.56;;;30.79;32.76
80424;BME280;69765;47.668;19.326;2023-07-28T13:52:23;98536.78;;;30.80;31.82
80424;BME280;69765;47.668;19.326;2023-07-28T13:55:27;98532.59;;;30.73;31.39
80424;BME280;69765;47.668;19.326;2023-07-28T13:58:33;98534.59;;;30.98;31.33
80424;BME280;69765;47.668;19.326;2023-07-28T14:01:35;98531.88;;;31.01;31.75
80424;BME280;69765;47.668;19.326;2023-07-28T14:04:37;98531.75;;;31.04;32.19
80424;BME280;69765;47.668;19.326;2023-07-28T14:07:40;98532.81;;;31.31;30.77
80424;BME280;69765;47.668;19.326;2023-07-28T14:10:46;98520.13;;;31.42;31.46
80424;BME280;69765;47.668;19.326;2023-07-28T14:13:48;98520.94;;;31.46;30.27
80424;BME280;69765;47.668;19.326;2023-07-28T14:16:51;98526.47;;;31.04;32.47
80424;BME280;69765;47.668;19.326;2023-07-28T14:19:53;98525.72;;;30.65;32.27
80424;BME280;69765;47.668;19.326;2023-07-28T14:22:55;98518.41;;;30.40;34.04
80424;BME280;69765;47.668;19.326;2023-07-28T14:25:58;98516.38;;;30.13;33.28
80424;BME280;69765;47.668;19.326;2023-07-28T14:29:00;98519.75;;;29.81;33.91
80424;BME280;69765;47.668;19.326;2023-07-28T14:32:03;98519.88;;;29.74;34.41
80424;BME280;69765;47.668;19.326;2023-07-28T14:35:06;98511.06;;;29.75;33.90
80424;BME280;69765;47.668;19.326;2023-07-28T14:38:08;98504.41;;;29.58;33.53
80424;BME280;69765;47.668;19.326;2023-07-28T14:41:10;98510.09;;;29.36;33.60
80424;BME280;69765;47.668;19.326;2023-07-28T14:44:13;98502.28;;;29.32;34.07
80424;BME280;69765;47.668;19.326;2023-07-28T14:47:18;98505.09;;;29.22;34.52
80424;BME280;69765;47.668;19.326;2023-07-28T14:50:21;98503.91;;;29.37;34.19
80424;BME280;69765;47.668;19.326;2023-07-28T14:53:36;98508.66;;;29.65;33.35
80424;BME280;69765;47.668;19.326;2023-07-28T14:56:39;98499.22;;;29.92;32.13
80424;BME280;69765;47.668;19.326;2023-07-28T14:59:41;98498.78;;;30.13;31.90
80424;BME280;69765;47.668;19.326;2023-07-28T15:02:44;98493.34;;;29.81;34.03
80424;BME280;69765;47.668;19.326;2023-07-28T15:05:47;98497.16;;;29.67;33.75
80424;BME280;69765;47.668;19.326;2023-07-28T15:08:49;98484.47;;;29.41;32.37
80424;BME280;69765;47.668;19.326;2023-07-28T15:11:51;98495.34;;;29.26;34.21
80424;BME280;69765;47.668;19.326;2023-07-28T15:14:54;98483.53;;;29.44;33.96
80424;BME280;69765;47.668;19.326;2023-07-28T15:17:57;98475.88;;;29.32;34.48
80424;BME280;69765;47.668;19.326;2023-07-28T15:20:59;98482.03;;;29.31;34.48
80424;BME280;69765;47.668;19.326;2023-07-28T15:24:02;98489.03;;;29.33;34.55
80424;BME280;69765;47.668;19.326;2023-07-28T15:27:04;98485.44;;;29.36;32.56
80424;BME280;69765;47.668;19.326;2023-07-28T15:30:08;98488.31;;;29.25;34.19
80424;BME280;69765;47.668;19.326;2023-07-28T15:33:12;98477.03;;;29.18;34.22
80424;BME280;69765;47.668;19.326;2023-07-28T15:36:15;98497.38;;;29.13;33.69
80424;BME280;69765;47.668;19.326;2023-07-28T15:39:19;98501.09;;;29.03;34.13
80424;BME280;69765;47.668;19.326;2023-07-28T15:42:22;98503.72;;;29.03;34.59
80424;BME280;69765;47.668;19.326;2023-07-28T15:45:24;98510.91;;;28.95;34.38
80424;BME280;69765;47.668;19.326;2023-07-28T15:48:27;98511.94;;;28.83;35.30
80424;BME280;69765;47.668;19.326;2023-07-28T15:51:29;98515.97;;;28.55;36.48
80424;BME280;69765;47.668;19.326;2023-07-28T15:54:32;98512.69;;;28.40;36.64
80424;BME280;69765;47.668;19.326;2023-07-28T15:57:34;98526.19;;;28.19;36.89
80424;BME280;69765;47.668;19.326;2023-07-28T16:00:36;98522.19;;;27.92;37.28
80424;BME280;69765;47.668;19.326;2023-07-28T16:03:39;98524.09;;;27.79;37.66
80424;BME280;69765;47.668;19.326;2023-07-28T16:06:41;98541.78;;;27.68;39.29
80424;BME280;69765;47.668;19.326;2023-07-28T16:09:43;98540.13;;;27.59;39.44